Sign-in with your pilot id or email, or register

ICAO: YBCS Name / Country: Cairns International Airport / Australia
Latitude: -16.8858 Longitude: 145.755
Total Arrivals:
Strict Standards: Non-static method AirportData::getarrflights() should not be called statically, assuming $this from incompatible context in /var/www/customers/vh-7192/web/home/phpvms/core/templates/airport_info.tpl on line 18
2
Total Departures:
Strict Standards: Non-static method AirportData::getdeptflights() should not be called statically, assuming $this from incompatible context in /var/www/customers/vh-7192/web/home/phpvms/core/templates/airport_info.tpl on line 21
3
Latest Arrival: MTA5PM (NWWW-YBCS) Tibor Berces Latest Departure: MTA5PM (YBCS-YPDN) Tibor Berces
Metar: YBCS 221500Z AUTO 15005KT 9999 // NCD 23/20 Q1011 NOSIG
More info

Charts for YBCS


NOTAM


Warning: file_get_contents(http://api.vateud.net/notams/YBCS.json): failed to open stream: Redirection limit reached, aborting in /var/www/customers/vh-7192/web/home/phpvms/core/common/NOTAMSData.class.php on line 18

Warning: Invalid argument supplied for foreach() in /var/www/customers/vh-7192/web/home/phpvms/core/common/NOTAMSData.class.php on line 22

Cairns International Airport